Latest Weather Observations for Friendly Beaches

IDT60801

Issued at 2:32 pm EST Thursday 28 July 2016 (issued every 30 minutes, with the page automatically refreshed every 10 minutes)

About weather observations | Map of weather stations | Latest weather observations for TAS | Other Formats
Station Details ID: 092114 Name: FRIENDLY BEACHES Lat: -42.00 Lon: 148.28 Height: 55.0 m
Data from the previous 72 hours. | See also: Recent months at Friendly Beaches
Date/Time
EST
Temp
°C
App
Temp
°C
Dew
Point
°C
Rel
Hum
%
Delta-T
°C
Wind Press
QNH
hPa
Press
MSL
hPa
Rain since
9am
mm
Dir  Spd
km/h
Gust
km/h
Spd
kts
Gust
kts
28/02:30pm 16.0 11.5 2.4 40 6.1 WSW 15 26 8 14 1007.6 1007.7 0.0
28/02:00pm 17.0 12.8 3.7 41 6.2 WSW 15 26 8 14 1007.2 1007.3 0.0
28/01:30pm 17.1 13.8 4.8 44 5.9 W 11 26 6 14 1007.2 1007.3 0.0
28/01:00pm 16.1 10.6 3.9 44 5.7 WNW 22 43 12 23 1006.7 1006.8 0.0
28/12:30pm 16.0 10.2 4.4 46 5.4 W 24 46 13 25 1006.2 1006.3 0.0
28/12:00pm 15.6 9.0 4.0 46 5.4 W 28 61 15 33 1006.3 1006.4 0.0
28/11:46am 15.5 8.9 4.3 47 5.2 W 28 59 15 32 1006.6 1006.7 0.0
28/11:30am 15.5 10.1 4.6 48 5.1 W 22 46 12 25 1006.8 1006.9 0.0
28/11:00am 15.1 11.1 5.0 51 4.8 WNW 15 35 8 19 1007.4 1007.5 0.0
28/10:30am 14.4 10.1 5.2 54 4.3 WNW 17 30 9 16 1007.2 1007.3 0.0
28/10:00am 13.6 8.9 5.0 56 4.0 WNW 19 35 10 19 1007.2 1007.3 0.0
28/09:30am 12.9 8.6 5.3 60 3.5 NW 17 32 9 17 1007.6 1007.7 0.0
28/09:00am 12.1 7.2 5.3 63 3.2 NW 20 37 11 20 1007.2 1007.3 0.0
28/08:30am 10.7 7.4 4.8 67 2.7 NW 11 19 6 10 1007.6 1007.7 0.0
28/08:00am 10.2 7.3 4.4 67 2.6 N 9 17 5 9 1007.9 1008.0 0.0
28/07:30am 9.8 6.4 3.8 66 2.6 N 11 22 6 12 1007.7 1007.8 0.0
28/07:00am 9.4 6.7 3.6 67 2.5 NNW 7 15 4 8 1007.8 1007.9 0.0
28/06:30am 9.0 6.8 3.4 68 2.4 NW 4 9 2 5 1007.8 1007.9 0.0
28/06:00am 8.7 5.9 2.9 67 2.5 NNW 7 15 4 8 1007.7 1007.8 0.0
28/05:30am 7.5 4.6 2.4 70 2.1 N 7 11 4 6 1007.5 1007.6 0.0
28/05:00am 7.9 4.9 2.2 67 2.4 NNE 7 9 4 5 1007.8 1007.9 0.0
28/04:30am 8.5 5.7 1.9 63 2.7 ENE 6 9 3 5 1007.6 1007.7 0.0
28/04:00am 8.8 5.9 1.5 60 3.0 NW 6 13 3 7 1007.3 1007.4 0.0
28/03:30am 9.8 5.1 0.7 53 3.7 W 15 32 8 17 1006.8 1006.9 0.0
28/03:00am 8.6 4.2 0.3 56 3.3 WNW 13 22 7 12 1007.3 1007.4 0.0
28/02:30am 8.4 4.4 0.6 58 3.1 WSW 11 17 6 9 1007.7 1007.8 0.0
28/02:00am 9.2 6.0 0.6 55 3.5 W 7 11 4 6 1007.8 1007.9 0.0
28/01:30am 10.2 5.8 0.5 51 4.0 WSW 13 26 7 14 1007.5 1007.6 0.0
28/01:00am 10.8 6.1 0.8 50 4.2 W 15 30 8 16 1007.1 1007.2 0.0
28/12:30am 10.8 5.2 1.4 52 3.9 W 20 37 11 20 1006.8 1006.9 0.0
28/12:00am 10.6 5.3 1.7 54 3.8 W 19 41 10 22 1006.6 1006.7 0.0
 
Date/Time
EST
Temp
°C
App
Temp
°C
Dew
Point
°C
Rel
Hum
%
Delta-T
°C
Wind Press
QNH
hPa
Press
MSL
hPa
Rain since
9am
mm
Dir  Spd
km/h
Gust
km/h
Spd
kts
Gust
kts
27/11:30pm 10.8 5.4 1.4 52 3.9 W 19 37 10 20 1006.4 1006.5 0.0
27/11:00pm 10.3 4.8 1.9 56 3.6 W 20 41 11 22 1006.1 1006.2 0.0
27/10:30pm 9.7 5.7 3.0 63 2.9 W 13 24 7 13 1006.3 1006.4 0.0
27/10:00pm 10.0 6.8 2.8 61 3.1 WNW 9 22 5 12 1005.8 1005.8 0.0
27/09:30pm 10.2 4.9 2.8 60 3.2 WNW 20 39 11 21 1005.5 1005.5 0.0
27/09:00pm 9.9 3.8 2.5 60 3.2 WNW 24 39 13 21 1004.6 1004.6 0.0
27/08:43pm 9.9 3.0 2.3 59 3.2 WNW 28 52 15 28 1003.7 1003.7 0.0
27/08:30pm 9.9 3.7 2.0 58 3.3 W 24 41 13 22 1003.8 1003.8 0.0
27/08:00pm 9.9 3.3 1.8 57 3.4 W 26 50 14 27 1003.5 1003.5 0.0
27/07:30pm 9.5 4.1 1.4 57 3.4 WNW 19 43 10 23 1002.5 1002.5 0.0
27/07:00pm 9.2 3.2 1.1 57 3.3 W 22 39 12 21 1002.9 1002.9 0.0
27/06:30pm 8.6 5.4 0.8 58 3.2 W 7 22 4 12 1003.0 1003.0 0.0
27/06:00pm 8.8 3.3 0.8 57 3.3 WNW 19 33 10 18 1003.0 1003.0 0.0
27/05:30pm 9.1 2.3 0.8 56 3.4 NW 26 46 14 25 1002.0 1002.0 0.0
27/05:00pm 9.0 4.3 0.7 56 3.4 NW 15 30 8 16 1003.7 1003.7 0.0
27/04:30pm 10.2 4.5 0.3 50 4.0 NW 20 43 11 23 1003.1 1003.1 0.0
27/04:00pm 10.0 5.6 0.6 52 3.9 NW 13 24 7 13 1003.7 1003.7 0.0
27/03:30pm 9.6 3.8 -0.3 50 3.9 WNW 20 37 11 20 1004.0 1004.0 0.0
27/03:00pm 9.8 4.0 -0.4 49 4.1 WNW 20 35 11 19 1003.8 1003.8 0.0
27/02:30pm 9.5 4.9 -0.7 49 4.0 WNW 13 24 7 13 1004.1 1004.1 0.0
27/02:00pm 9.6 5.4 -1.1 47 4.2 W 11 20 6 11 1004.3 1004.3 0.0
27/01:30pm 9.7 4.0 -0.8 48 4.1 W 19 30 10 16 1004.2 1004.2 0.0
27/01:00pm 10.0 4.6 -1.7 44 4.6 W 17 33 9 18 1004.3 1004.3 0.0
27/12:30pm 10.1 4.7 -1.6 44 4.5 WSW 17 30 9 16 1004.2 1004.2 0.0
27/12:00pm 8.9 3.0 -2.1 46 4.2 WSW 19 32 10 17 1004.5 1004.5 0.0
27/11:30am 9.3 3.5 -1.7 46 4.2 WSW 19 32 10 17 1004.7 1004.7 0.0
27/11:00am 9.3 4.0 -0.3 51 3.8 WSW 17 32 9 17 1004.5 1004.5 0.0
27/10:30am 8.7 3.9 -0.1 54 3.5 WSW 15 26 8 14 1004.3 1004.3 0.0
27/10:00am 7.8 3.0 0.1 58 3.1 WSW 15 24 8 13 1004.3 1004.3 0.0
27/09:30am 7.2 1.7 0.4 62 2.7 WSW 19 30 10 16 1004.0 1004.0 0.0
27/09:00am 6.7 2.0 0.8 66 2.4 WSW 15 28 8 15 1003.7 1003.7 0.0
27/08:30am 6.1 1.8 1.1 70 2.0 WSW 13 22 7 12 1003.0 1003.0 0.0
27/08:00am 6.0 0.9 1.0 70 2.0 WSW 17 26 9 14 1002.4 1002.4 0.0
27/07:30am 5.8 2.0 1.7 75 1.6 WSW 11 19 6 10 1001.8 1001.8 0.0
27/07:00am 6.4 2.7 2.1 74 1.8 WSW 11 19 6 10 1000.9 1001.0 0.0
27/06:30am 6.9 1.8 2.8 75 1.7 WSW 19 28 10 15 1000.3 1000.4 0.0
27/06:00am 7.4 3.1 3.1 74 1.8 SW 15 30 8 16 999.7 999.8 0.0
27/05:30am 7.8 3.7 4.2 78 1.6 W 15 24 8 13 998.3 998.4 0.0
27/05:00am 7.8 4.7 3.8 76 1.7 WSW 9 15 5 8 997.8 997.9 0.0
27/04:30am 8.2 3.1 3.9 74 1.9 WNW 20 37 11 20 996.6 996.7 0.0
27/04:00am 8.1 2.6 3.8 74 1.9 WNW 22 43 12 23 996.0 996.1 0.0
27/03:30am 8.0 2.8 3.3 72 2.0 NW 20 41 11 22 995.7 995.8 0.0
27/03:00am 7.9 3.5 2.8 70 2.2 NW 15 44 8 24 995.6 995.7 0.0
27/02:30am 8.0 1.5 2.9 70 2.2 NW 26 43 14 23 995.7 995.8 0.0
27/02:13am 8.2 1.4 3.1 70 2.2 NW 28 50 15 27 995.8 995.9 0.0
27/02:00am 8.4 3.4 3.5 71 2.1 NNW 19 39 10 21 995.9 996.0 0.0
27/01:30am 7.7 4.9 3.2 73 1.9 NNW 7 17 4 9 996.2 996.3 0.0
27/01:00am 7.8 4.2 2.9 71 2.1 NW 11 17 6 9 996.5 996.6 0.0
27/12:30am 7.2 3.9 2.3 71 2.0 NNW 9 20 5 11 997.0 997.1 0.0
27/12:00am 7.1 3.7 1.8 69 2.2 N 9 15 5 8 997.2 997.3 0.0
 
Date/Time
EST
Temp
°C
App
Temp
°C
Dew
Point
°C
Rel
Hum
%
Delta-T
°C
Wind Press
QNH
hPa
Press
MSL
hPa
Rain since
9am
mm
Dir  Spd
km/h
Gust
km/h
Spd
kts
Gust
kts
26/11:30pm 7.2 3.5 2.1 70 2.1 N 11 19 6 10 997.6 997.7 0.0
26/11:00pm 7.1 4.1 2.0 70 2.1 NNW 7 17 4 9 997.9 998.0 0.0
26/10:30pm 7.1 3.3 2.0 70 2.1 N 11 20 6 11 998.5 998.6 0.0
26/10:00pm 7.1 3.3 1.8 69 2.2 N 11 20 6 11 999.0 999.1 0.0
26/09:30pm 7.2 3.0 1.7 68 2.2 N 13 22 7 12 999.3 999.4 0.0
26/09:00pm 7.1 3.7 1.6 68 2.3 NW 9 15 5 8 999.8 999.9 0.0
26/08:30pm 7.5 4.4 1.6 66 2.4 WNW 7 11 4 6 1000.1 1000.2 0.0
26/08:00pm 8.0 3.7 1.2 62 2.8 NW 13 22 7 12 1000.5 1000.6 0.0
26/07:30pm 8.2 3.5 0.9 60 2.9 NW 15 32 8 17 1000.6 1000.7 0.0
26/07:00pm 8.2 3.5 1.1 61 2.9 NW 15 28 8 15 1000.6 1000.7 0.0
26/06:30pm 8.3 3.2 1.0 60 3.0 WNW 17 35 9 19 1000.5 1000.6 0.0
26/06:00pm 8.4 2.0 0.9 59 3.1 WNW 24 43 13 23 1000.4 1000.5 0.0
26/05:30pm 8.3 3.2 0.5 58 3.1 NW 17 32 9 17 1000.2 1000.3 0.0
26/05:00pm 8.6 4.2 0.6 57 3.2 NW 13 35 7 19 999.8 999.9 0.0
26/04:30pm 8.9 4.5 0.6 56 3.4 WNW 13 24 7 13 999.9 1000.0 0.0
26/04:00pm 9.5 5.1 0.4 53 3.7 WNW 13 24 7 13 1000.0 1000.1 0.0
26/03:30pm 10.1 4.5 0.2 50 4.0 NW 19 37 10 20 1000.0 1000.1 0.0
26/03:00pm 11.0 5.8 0.4 48 4.4 NW 17 30 9 16 999.8 999.9 0.0
26/02:30pm 10.2 6.2 0.8 52 3.9 NW 11 30 6 16 999.7 999.8 0.0
26/02:00pm 9.8 6.2 0.4 52 3.8 NNW 9 20 5 11 999.7 999.8 0.0
26/01:30pm 10.8 6.0 0.0 47 4.4 NW 15 30 8 16 999.5 999.6 0.0
26/01:00pm 11.1 5.9 0.2 47 4.5 NW 17 33 9 18 999.5 999.6 0.0
26/12:30pm 10.8 4.6 -0.6 45 4.6 NW 22 37 12 20 999.3 999.4 0.0
26/12:00pm 10.9 5.6 -0.5 45 4.6 WNW 17 39 9 21 998.9 999.0 0.0
26/11:30am 10.2 3.9 -0.9 46 4.4 WNW 22 43 12 23 998.0 998.1 0.0
26/11:00am 9.2 2.9 -0.9 49 4.0 WNW 22 43 12 23 998.1 998.2 0.0
26/10:30am 8.5 1.5 -0.8 52 3.6 WNW 26 41 14 22 998.4 998.5 0.0
26/10:00am 7.9 1.2 -0.8 54 3.4 WNW 24 39 13 21 998.7 998.8 0.0
26/09:30am 7.2 0.9 -0.7 57 3.0 WNW 22 37 12 20 998.6 998.7 0.0
26/09:00am 6.5 0.3 -0.5 61 2.7 WNW 22 37 12 20 998.2 998.3 0.0
26/08:30am 5.9 1.0 -0.2 65 2.3 WNW 15 32 8 17 998.4 998.5 0.0
26/08:00am 5.5 0.3 -0.1 67 2.2 WNW 17 32 9 17 998.0 998.1 0.0
26/07:30am 5.3 -0.4 -0.5 66 2.2 WNW 19 30 10 16 997.4 997.5 0.0
26/07:00am 5.3 0.0 -0.5 66 2.2 WNW 17 30 9 16 996.6 996.7 0.0
26/06:30am 5.4 0.1 -0.6 65 2.3 WNW 17 32 9 17 996.2 996.3 0.0
26/06:00am 5.6 0.3 -0.4 65 2.3 WNW 17 28 9 15 995.7 995.8 0.0
26/05:30am 5.8 0.5 -0.3 65 2.3 WNW 17 35 9 19 995.0 995.1 0.0
26/05:00am 6.0 -0.2 -0.1 65 2.4 WNW 22 43 12 23 994.4 994.5 0.0
26/04:30am 6.0 0.1 -0.5 63 2.5 WNW 20 39 11 21 993.9 994.0 0.0
26/04:00am 6.1 -0.5 -0.2 64 2.4 NW 24 39 13 21 993.1 993.2 0.0
26/03:30am 6.3 -0.3 -0.2 63 2.5 WNW 24 43 13 23 992.8 992.9 0.0
26/03:00am 6.5 0.0 0.2 64 2.5 WNW 24 48 13 26 992.4 992.5 0.0
26/02:38am 6.6 -0.6 0.7 66 2.3 WNW 28 54 15 29 992.1 992.2 0.0
26/02:30am 6.4 0.0 0.7 67 2.2 WNW 24 44 13 24 992.2 992.3 0.0
26/02:00am 6.8 0.0 0.7 65 2.4 WNW 26 43 14 23 992.0 992.1 0.0
26/01:51am 6.9 -0.3 0.6 64 2.5 WNW 28 48 15 26 991.9 992.0 0.0
26/01:30am 6.8 0.3 0.5 64 2.5 WNW 24 43 13 23 991.6 991.7 0.0
26/01:03am 7.2 -0.1 0.2 61 2.7 WNW 28 52 15 28 990.9 990.9 0.0
26/01:00am 7.2 0.3 0.4 62 2.7 WNW 26 54 14 29 990.8 990.8 0.0
26/12:30am 7.5 -0.1 0.7 62 2.7 WNW 30 56 16 30 990.8 990.8 0.0
26/12:15am 7.6 0.4 1.0 63 2.7 WNW 28 54 15 29 990.5 990.5 0.0
26/12:00am 7.7 1.3 0.9 62 2.8 WNW 24 54 13 29 989.8 989.8 0.0
 
Date/Time
EST
Temp
°C
App
Temp
°C
Dew
Point
°C
Rel
Hum
%
Delta-T
°C
Wind Press
QNH
hPa
Press
MSL
hPa
Rain since
9am
mm
Dir  Spd
km/h
Gust
km/h
Spd
kts
Gust
kts
25/11:30pm 8.2 1.1 1.6 63 2.7 WNW 28 52 15 28 989.9 989.9 0.0
25/11:03pm 8.7 1.7 1.8 62 2.9 WNW 28 57 15 31 989.6 989.6 0.0
25/11:00pm 8.6 2.4 2.0 63 2.8 WNW 24 57 13 31 989.6 989.6 0.0
25/10:30pm 9.2 2.3 2.5 63 2.8 NW 28 52 15 28 988.9 988.9 0.0
25/10:15pm 9.2 2.3 2.3 62 2.9 NW 28 52 15 28 988.5 988.5 0.0
25/10:00pm 9.2 4.3 2.3 62 2.9 NW 17 41 9 22 988.5 988.5 0.0
25/09:30pm 8.7 3.6 3.3 69 2.3 NNW 19 37 10 20 987.8 987.8 0.0
25/09:00pm 8.1 5.2 4.9 80 1.4 NNW 9 19 5 10 989.7 989.7 0.0
25/08:30pm 9.3 5.2 4.5 72 2.1 N 15 30 8 16 989.8 989.8 0.0
25/08:00pm 10.4 6.1 3.2 61 3.2 N 15 37 8 20 990.0 990.0 0.0
25/07:30pm 9.9 5.0 3.9 66 2.6 N 19 33 10 18 990.6 990.6 0.0
25/07:00pm 9.7 5.3 2.8 62 3.0 N 15 28 8 15 991.6 991.7 0.0
25/06:30pm 10.0 5.3 1.1 54 3.7 NNW 15 24 8 13 992.5 992.6 0.0
25/06:00pm 10.3 5.7 1.7 55 3.7 NNW 15 24 8 13 992.8 992.9 0.0
25/05:30pm 9.8 6.1 2.6 61 3.1 NW 11 17 6 9 993.5 993.6 0.0
25/05:00pm 10.9 6.9 3.0 58 3.5 NW 13 24 7 13 993.9 994.0 0.0
25/04:30pm 12.1 8.7 4.1 58 3.6 NW 11 17 6 9 994.2 994.3 0.0
25/04:00pm 12.0 8.2 4.0 58 3.6 NW 13 28 7 15 994.8 994.9 0.0
25/03:30pm 13.0 8.4 3.7 53 4.2 WNW 17 33 9 18 995.3 995.4 0.0
25/03:00pm 12.3 7.1 3.8 56 3.9 NW 20 33 11 18 995.2 995.3 0.0

Other Formats:

Comma delimited format used in spreadsheet applications
http://www.bom.gov.au/fwo/IDT60801/IDT60801.94987.axf

JavaScript Object Notation format (JSON) in row-major order
http://www.bom.gov.au/fwo/IDT60801/IDT60801.94987.json